Airfield :







YOU CAN JOIN US ON...

 
LOGIN :

Register | Disclaimer

   EN    FR    IT 

 









Legend :    VFR   Marginal VFR   IFR   Intensive IFR   Very Intensive IFR
Visi :
Ceiling :
>= 8 km
>= 3000ft
5 to 8 km
1000 to 3000 ft
1500m to 5 km
500 to 1000 ft
800 to 1500m
200 to 500 ft
< 800m
< 200 ft
Symbols :   Thunderstorms  Fog  Heavy snow  Heavy precipitations  Wind > 20 kt







- Airport Elevation : 110 ft
- IATA code : YFB


CYFB - Iqaluit

CURRENT METAR :
  • 181100Z 15003KT 30SM SCT110 SCT250 10/05 A2952 RMK AC4CI1 CI TR SLP999

EXPIRED METARs :
  • 181000Z 16002KT 30SM BKN140 10/06 A2952 RMK AC5 SLP001
  • 180900Z VRB02KT 30SM BKN130 BKN250 09/05 A2953 RMK AC7CI1 CI TR SLP004
  • 180800Z VRB02KT 30SM BKN130 BKN250 08/05 A2953 RMK AC5CI1 SLP004

TAF TAF CYFB
Valid from the 18 at 06:00 until the 19 at 06:00 UTC


180538Z 1806/1906 VRB03KT P6SM FEW060
FM181200 VRB03KT P6SM SCT060
TEMPO 1812/1815 BKN060
BECMG 1812/1814 15008KT
FM181500 15010KT P6SM BKN060
TEMPO 1815/1821 P6SM -SHRA OVC030
FM182100 14010KT P6SM SCT020 OVC040
TEMPO 1821/1906 P6SM -SHRA OVC020 RMK NXT FCST BY 181200Z
CZUL FIR / North America



MET'MAP, your aeronautical weather chart ! - Copyright ORBIFLY December 2007 - Disclaimer

ORBIFLY MET'MAP TEAM :

Programming & Development : Alexandra Zaïnal
Concept & Development : Baudouin d'Aumeries
Co-Development & Prog : Marc-Olivier Méhu
Technical & hardware support : Manuel Goepfert

Contact : metmap@orbifly.com




SOURCES & CREDITS :

   NOAA